Aérodrome :
LOGIN :

S'inscrire | Disclaimer

   EN    FR    IT 

 










Légende :    VFR   VFR Marginal   IFR   IFR Intensif   IFR Très Intensif
Visi : 
Plafond : 
>= 8 km
>= 3000ft
5 à 8 km
1000 à 3000 ft
1500m à 5 km
500 à 1000 ft
800 à 1500m
200 à 500 ft
< 800m
< 200 ft
Symboles :   Orages  Brouillard  Fortes neiges  Fortes précipitations  Vent > 20 kt
SIGMETs :   Divers  Orages  Givrage  Turbulence  Onde Orograph.  Cendres Volcan.







- Altitude de l'aérodrome : 100 ft


EBDT - Schaffen

DERNIER METAR :
  • 220555Z 24012G23KT 9000 -RADZ FEW009 BKN013 10/08 Q1009 GRN GRN TEMPO YLO

METARs EXPIRÉS :
  • 220525Z 24012KT 9000 -RADZ FEW009 BKN012 10/08 Q1009 GRN GRN TEMPO YLO
  • 220455Z 24012KT 7000 -DZ SCT009 BKN012 09/08 Q1009 GRN GRN TEMPO YLO
  • 220449Z 24013KT 7000 -DZ SCT009 BKN012 09/08 Q1009 GRN GRN TEMPO YLO
  • 220425Z 23011KT 7000 -DZ FEW009 BKN012 09/08 Q1010 GRN
  • 220355Z AUTO 22010KT 9999 -DZ FEW008/// SCT012/// BKN015/// 09/08 Q1010 GRN
  • 220347Z AUTO 23010KT 5000 -DZ FEW009/// SCT012/// BKN015/// 09/08 Q1010 GRN
  • 220333Z AUTO 23013KT 2200 -RA FEW010/// SCT014/// BKN018/// 09/08 Q1010 YLO
  • 220325Z AUTO 23012G23KT 9999 FEW011/// SCT014/// BKN018/// 09/08 Q1010 GRN

TAF TAF EBDT
Valide du 21 à 19h jusqu'au 22 à 07h UTC


211541Z 2119/2207 23010KT 3000 -RADZ SCT003 BKN005
TEMPO 2201/2207 4000 BR SCT007 BKN010
Pas de NOTAMs connus pour ce terrain.
1 SIGMET publié pour la FIR Brussels (EBBU) :
 
Turbulence forte
EBBU SIGMET 01 VALID 220400/220700 EBBR
EBBU BRUSSELS FIR SEV TURB FCST W OF LINE N5115 E00400 - N5045 E00330 SFC/FL050 MOV E15KT WKN=



MET'MAP, la Météo Aéronautique d'un coup d'oeil ! - Copyright ORBIFLY Décembre 2007 - Disclaimer

ORBIFLY MET'MAP TEAM :

Programmation & Développement : Alexandra Zaïnal
Conception & Développement : Baudouin d'Aumeries
Co-Programmation & Développement : Marc-Olivier Méhu
Soutien technique & logistique : Manuel Goepfert

Contact : metmap@orbifly.com




SOURCES & CREDITS :

   NOAA